createdAt,value
2018-08-07T00:00:53.283Z,12.63
2018-08-07T00:03:24.627Z,12.50
2018-08-07T00:05:56.659Z,12.80
2018-08-07T00:08:27.787Z,13.13
2018-08-07T00:10:59.475Z,12.57
2018-08-07T00:13:30.875Z,12.33
2018-08-07T00:16:02.027Z,13.20
2018-08-07T00:18:33.762Z,13.30
2018-08-07T00:21:05.599Z,13.60
2018-08-07T00:23:37.388Z,12.90
2018-08-07T00:26:08.959Z,13.40
2018-08-07T00:28:40.247Z,13.00
2018-08-07T00:31:11.306Z,13.57
2018-08-07T00:33:42.525Z,13.13
2018-08-07T00:36:13.764Z,13.53
2018-08-07T00:38:45.031Z,13.13
2018-08-07T00:41:16.352Z,13.20
2018-08-07T00:43:47.696Z,13.53
2018-08-07T00:46:18.990Z,13.53
2018-08-07T00:48:50.195Z,13.50
2018-08-07T00:51:21.388Z,13.40
2018-08-07T00:53:52.743Z,13.80
2018-08-07T00:56:24.036Z,13.37
2018-08-07T00:58:55.358Z,13.30
2018-08-07T01:01:26.723Z,13.80
2018-08-07T01:03:58.416Z,13.30
2018-08-07T01:06:29.716Z,13.03
2018-08-07T01:09:01.176Z,13.47
2018-08-07T01:11:33.267Z,14.67
2018-08-07T01:14:04.582Z,13.73
2018-08-07T01:16:35.701Z,13.83
2018-08-07T01:19:06.826Z,13.63
2018-08-07T01:21:37.915Z,13.70
2018-08-07T01:24:09.484Z,14.37
2018-08-07T01:26:40.819Z,14.63
2018-08-07T01:29:12.109Z,14.73
2018-08-07T01:31:43.066Z,14.13
2018-08-07T01:34:14.192Z,14.20
2018-08-07T01:36:45.592Z,13.70
2018-08-07T01:39:16.756Z,14.97
2018-08-07T01:41:47.787Z,15.07
2018-08-07T01:44:18.929Z,14.93
2018-08-07T01:46:50.229Z,14.77
2018-08-07T01:49:21.976Z,14.70
2018-08-07T01:51:53.303Z,15.10
2018-08-07T01:54:24.526Z,15.10
2018-08-07T01:56:55.759Z,14.80
2018-08-07T01:59:27.716Z,14.87
2018-08-07T02:01:59.039Z,14.77
2018-08-07T02:04:30.068Z,15.13
2018-08-07T02:07:01.268Z,14.97
2018-08-07T02:09:32.615Z,16.20
2018-08-07T02:12:03.889Z,14.63
2018-08-07T02:14:35.183Z,15.00
2018-08-07T02:17:06.611Z,15.37
2018-08-07T02:19:38.036Z,16.23
2018-08-07T02:22:10.209Z,15.67
2018-08-07T02:24:41.596Z,16.00
2018-08-07T02:27:12.834Z,15.70
2018-08-07T02:29:43.930Z,15.30
2018-08-07T02:32:15.316Z,15.77
2018-08-07T02:34:46.525Z,15.47
2018-08-07T02:37:17.765Z,16.47
2018-08-07T02:39:49.132Z,15.77
2018-08-07T02:42:21.050Z,15.67
2018-08-07T02:44:53.027Z,16.03
2018-08-07T02:47:24.443Z,15.50
2018-08-07T02:49:56.276Z,14.80
2018-08-07T02:52:27.461Z,15.73
2018-08-07T02:54:59.054Z,15.37
2018-08-07T02:57:30.358Z,15.57
2018-08-07T03:00:02.244Z,15.83
2018-08-07T03:02:33.569Z,15.97
2018-08-07T03:05:05.788Z,15.70
2018-08-07T03:07:37.031Z,15.80
2018-08-07T03:10:09.602Z,16.27
2018-08-07T03:12:41.124Z,16.20
2018-08-07T03:15:17.360Z,16.23
2018-08-07T03:17:49.036Z,16.20
2018-08-07T03:20:20.526Z,16.00
2018-08-07T03:22:51.972Z,16.77
2018-08-07T03:25:23.165Z,15.57
2018-08-07T03:27:54.436Z,16.87
2018-08-07T03:30:25.639Z,16.30
2018-08-07T03:32:57.176Z,15.87
2018-08-07T03:35:28.455Z,15.10
2018-08-07T03:37:59.447Z,16.70
2018-08-07T03:40:31.053Z,17.10
2018-08-07T03:43:02.519Z,16.87
2018-08-07T03:45:34.178Z,17.03
2018-08-07T03:48:05.349Z,17.90
2018-08-07T03:50:36.868Z,17.43
2018-08-07T03:53:08.120Z,18.00
2018-08-07T03:55:39.393Z,17.23
2018-08-07T03:58:10.747Z,18.20
2018-08-07T04:00:47.935Z,17.87
2018-08-07T04:03:19.293Z,17.40
2018-08-07T04:05:50.911Z,18.13
2018-08-07T04:08:22.275Z,18.00
2018-08-07T04:10:53.701Z,18.20
2018-08-07T04:13:24.792Z,18.33
2018-08-07T04:15:57.158Z,17.53
2018-08-07T04:18:28.373Z,18.47
2018-08-07T04:20:59.564Z,18.90
2018-08-07T04:23:31.901Z,18.60
2018-08-07T04:26:03.015Z,17.97
2018-08-07T04:28:33.613Z,18.83
2018-08-07T04:31:05.037Z,19.23
2018-08-07T04:33:36.343Z,19.43
2018-08-07T04:36:07.700Z,19.53
2018-08-07T04:38:39.344Z,19.43
2018-08-07T04:41:10.747Z,19.97
2018-08-07T04:43:41.837Z,20.77
2018-08-07T04:46:13.145Z,20.87
2018-08-07T04:48:44.753Z,21.20
2018-08-07T04:51:15.800Z,21.57
2018-08-07T04:53:47.006Z,20.33
2018-08-07T04:56:18.399Z,20.33
2018-08-07T04:58:49.781Z,20.67
2018-08-07T05:01:20.997Z,21.57
2018-08-07T05:03:52.715Z,21.77
2018-08-07T05:06:23.931Z,21.27
2018-08-07T05:08:55.599Z,21.13
2018-08-07T05:11:26.695Z,22.33
2018-08-07T05:13:57.716Z,21.43
2018-08-07T05:16:29.399Z,22.17
2018-08-07T05:19:00.674Z,21.93
2018-08-07T05:21:31.938Z,21.63
2018-08-07T05:24:03.136Z,21.63
2018-08-07T05:26:34.272Z,21.47
2018-08-07T05:29:05.579Z,21.47
2018-08-07T05:31:36.759Z,21.47
2018-08-07T05:34:08.547Z,21.67
2018-08-07T05:36:40.088Z,21.63
2018-08-07T05:39:12.403Z,21.93
2018-08-07T05:41:43.779Z,21.97
2018-08-07T05:44:15.188Z,22.17
2018-08-07T05:46:46.801Z,21.20
2018-08-07T05:49:17.967Z,21.17
2018-08-07T05:51:49.148Z,21.30
2018-08-07T05:54:20.548Z,21.07
2018-08-07T05:56:52.042Z,21.30
2018-08-07T05:59:23.172Z,21.17
2018-08-07T06:01:54.896Z,20.57
2018-08-07T06:04:26.312Z,20.87
2018-08-07T06:06:57.703Z,20.90
2018-08-07T06:09:28.981Z,20.97
2018-08-07T06:12:00.019Z,20.57
2018-08-07T06:14:31.216Z,19.73
2018-08-07T06:17:02.574Z,19.47
2018-08-07T06:19:33.687Z,19.67
2018-08-07T06:22:06.164Z,19.83
2018-08-07T06:24:37.540Z,19.40
2018-08-07T06:27:08.655Z,19.47
2018-08-07T06:29:39.903Z,20.13
2018-08-07T06:32:11.440Z,19.50
2018-08-07T06:34:42.537Z,19.60
2018-08-07T06:37:14.225Z,18.00
2018-08-07T06:39:45.666Z,19.20
2018-08-07T06:42:16.887Z,18.63
2018-08-07T06:44:48.366Z,18.07
2018-08-07T06:47:19.631Z,19.03
2018-08-07T06:49:50.717Z,18.30
2018-08-07T06:52:22.307Z,17.90
2018-08-07T06:54:53.473Z,17.43
2018-08-07T06:57:24.716Z,17.50
2018-08-07T06:59:55.329Z,17.60
2018-08-07T07:02:26.292Z,16.73
2018-08-07T07:04:57.593Z,16.93
2018-08-07T07:07:30.536Z,17.13
2018-08-07T07:10:01.659Z,17.00
2018-08-07T07:12:32.867Z,17.37
2018-08-07T07:15:04.318Z,16.97
2018-08-07T07:17:35.560Z,16.40
2018-08-07T07:20:09.314Z,16.60
2018-08-07T07:22:40.883Z,15.73
2018-08-07T07:25:12.268Z,16.27
2018-08-07T07:27:43.975Z,16.47
2018-08-07T07:30:20.647Z,16.60
2018-08-07T07:32:53.111Z,15.75
2018-08-07T07:35:24.591Z,16.12
2018-08-07T07:37:55.267Z,15.90
2018-08-07T07:40:26.860Z,15.45
2018-08-07T07:42:58.309Z,15.53
2018-08-07T07:45:29.555Z,16.23
2018-08-07T07:48:00.488Z,15.53
2018-08-07T07:50:31.630Z,15.45
2018-08-07T07:53:03.021Z,15.60
2018-08-07T07:55:34.428Z,15.45
2018-08-07T07:58:05.644Z,15.18
2018-08-07T08:00:37.028Z,15.10
2018-08-07T08:03:08.920Z,15.93
2018-08-07T08:05:40.084Z,15.15
2018-08-07T08:08:11.279Z,16.00
2018-08-07T08:10:43.149Z,15.23
2018-08-07T08:13:13.656Z,14.87
2018-08-07T08:15:44.978Z,15.75
2018-08-07T08:18:16.436Z,15.40
2018-08-07T08:20:47.831Z,15.78
2018-08-07T08:23:19.136Z,15.72
2018-08-07T08:25:50.528Z,15.60
2018-08-07T08:28:22.613Z,15.75
2018-08-07T08:30:54.140Z,15.60
2018-08-07T08:33:24.882Z,16.07
2018-08-07T08:35:56.220Z,16.62
2018-08-07T08:38:27.567Z,14.78
2018-08-07T08:40:58.663Z,15.13
2018-08-07T08:43:30.288Z,15.60
2018-08-07T08:46:01.173Z,15.13
2018-08-07T08:48:32.576Z,15.08
2018-08-07T08:51:04.070Z,15.10
2018-08-07T08:53:35.362Z,14.45
2018-08-07T08:56:06.668Z,15.60
2018-08-07T08:58:37.835Z,15.83
2018-08-07T09:01:09.110Z,15.55
2018-08-07T09:03:40.769Z,15.48
2018-08-07T09:06:12.556Z,16.20
2018-08-07T09:08:43.783Z,16.00
2018-08-07T09:11:14.565Z,15.85
2018-08-07T09:13:45.764Z,16.00
2018-08-07T09:16:17.461Z,16.05
2018-08-07T09:18:48.656Z,15.00
2018-08-07T09:21:19.851Z,15.20
2018-08-07T09:23:51.236Z,15.00
2018-08-07T09:26:22.669Z,15.13
2018-08-07T09:28:53.816Z,15.13
2018-08-07T09:31:25.487Z,14.85
2018-08-07T09:33:56.696Z,14.73
2018-08-07T09:36:28.187Z,15.32
2018-08-07T09:38:59.495Z,15.55
2018-08-07T09:41:30.723Z,14.87
2018-08-07T09:44:02.201Z,15.23
2018-08-07T09:46:33.685Z,14.25
2018-08-07T09:49:06.844Z,14.45
2018-08-07T09:51:38.783Z,15.60
2018-08-07T09:54:09.887Z,15.32
2018-08-07T09:56:41.554Z,15.48
2018-08-07T09:59:12.775Z,15.45
2018-08-07T10:01:49.050Z,15.78
2018-08-07T10:04:20.297Z,16.17
2018-08-07T10:06:51.767Z,15.35
2018-08-07T10:09:23.062Z,15.28
2018-08-07T10:11:54.268Z,14.90
2018-08-07T10:14:25.446Z,14.25
2018-08-07T10:16:56.728Z,14.70
2018-08-07T10:19:27.934Z,14.03
2018-08-07T10:21:59.304Z,14.10
2018-08-07T10:24:30.978Z,14.58
2018-08-07T10:27:02.327Z,15.00
2018-08-07T10:29:33.604Z,14.47
2018-08-07T10:32:05.458Z,14.23
2018-08-07T10:34:36.849Z,14.78
2018-08-07T10:37:08.151Z,14.18
2018-08-07T10:39:39.428Z,14.33
2018-08-07T10:42:10.554Z,14.63
2018-08-07T10:44:41.955Z,15.45
2018-08-07T10:47:13.269Z,17.12
2018-08-07T10:49:44.326Z,18.07
2018-08-07T10:52:15.604Z,16.93
2018-08-07T10:54:46.961Z,16.48
2018-08-07T10:57:18.319Z,17.73
2018-08-07T10:59:49.460Z,16.90
2018-08-07T11:02:20.883Z,16.37
2018-08-07T11:04:52.059Z,16.95
2018-08-07T11:07:23.396Z,17.80
2018-08-07T11:09:54.504Z,16.65
2018-08-07T11:12:25.629Z,17.12
2018-08-07T11:14:57.038Z,17.17
2018-08-07T11:17:28.588Z,17.05
2018-08-07T11:20:00.064Z,16.10
2018-08-07T11:22:31.912Z,17.37
2018-08-07T11:25:03.971Z,16.50
2018-08-07T11:27:35.124Z,17.17
2018-08-07T11:30:09.268Z,17.90
2018-08-07T11:32:40.649Z,17.75
2018-08-07T11:35:12.182Z,16.10
2018-08-07T11:37:44.813Z,15.13
2018-08-07T11:40:18.080Z,14.83
2018-08-07T11:42:49.992Z,15.03
2018-08-07T11:45:24.423Z,15.65
2018-08-07T11:47:55.597Z,16.62
2018-08-07T11:50:28.112Z,16.60
2018-08-07T11:52:59.494Z,15.63
2018-08-07T11:55:30.868Z,15.95
2018-08-07T11:58:02.274Z,16.30
2018-08-07T12:00:35.389Z,16.80
2018-08-07T12:03:08.487Z,16.93
2018-08-07T12:05:39.743Z,16.65
2018-08-07T12:08:11.103Z,17.32
2018-08-07T12:10:42.491Z,17.00
2018-08-07T12:13:14.127Z,16.97
2018-08-07T12:15:45.442Z,16.30
2018-08-07T12:18:16.551Z,16.45
2018-08-07T12:20:48.123Z,17.45
2018-08-07T12:23:19.337Z,16.67
2018-08-07T12:25:50.875Z,17.05
2018-08-07T12:28:21.877Z,17.30
2018-08-07T12:30:53.234Z,17.02
2018-08-07T12:33:24.583Z,17.12
2018-08-07T12:35:56.023Z,17.00
2018-08-07T12:38:27.452Z,17.60
2018-08-07T12:40:58.760Z,18.12
2018-08-07T12:43:30.264Z,17.95
2018-08-07T12:46:01.589Z,18.27
2018-08-07T12:48:32.987Z,17.50
2018-08-07T12:51:04.423Z,17.32
2018-08-07T12:53:35.773Z,16.95
2018-08-07T12:56:06.960Z,17.30
2018-08-07T12:58:38.269Z,17.75
2018-08-07T13:01:09.253Z,17.17
2018-08-07T13:03:40.963Z,17.10
2018-08-07T13:06:12.150Z,16.82
2018-08-07T13:08:43.239Z,16.02
2018-08-07T13:11:14.740Z,16.85
2018-08-07T13:13:45.853Z,17.05
2018-08-07T13:16:17.647Z,16.30
2018-08-07T13:18:48.958Z,16.87
2018-08-07T13:21:19.996Z,16.73
2018-08-07T13:23:51.506Z,16.40
2018-08-07T13:26:22.788Z,16.35
2018-08-07T13:28:54.132Z,15.88
2018-08-07T13:31:25.661Z,16.42
2018-08-07T13:33:56.892Z,16.48
2018-08-07T13:36:27.990Z,17.42
2018-08-07T13:38:59.172Z,16.67
2018-08-07T13:41:30.333Z,18.80
2018-08-07T13:44:01.935Z,16.93
2018-08-07T13:46:33.329Z,15.40
2018-08-07T13:49:04.876Z,16.05
2018-08-07T13:51:36.427Z,16.05
2018-08-07T13:54:07.739Z,16.40
2018-08-07T13:56:38.826Z,16.90
2018-08-07T13:59:10.280Z,15.83
2018-08-07T14:01:41.628Z,15.83
2018-08-07T14:04:13.091Z,15.50
2018-08-07T14:06:44.259Z,15.88
2018-08-07T14:09:15.559Z,16.02
2018-08-07T14:11:46.927Z,15.78
2018-08-07T14:14:18.783Z,16.10
2018-08-07T14:16:50.169Z,14.78
2018-08-07T14:19:21.494Z,15.08
2018-08-07T14:21:52.711Z,14.90
2018-08-07T14:24:24.024Z,15.48
2018-08-07T14:26:56.100Z,14.70
2018-08-07T14:29:27.802Z,15.08
2018-08-07T14:31:59.455Z,14.33
2018-08-07T14:34:31.118Z,14.20
2018-08-07T14:37:02.516Z,14.23
2018-08-07T14:39:34.619Z,13.78
2018-08-07T14:42:06.076Z,13.78
2018-08-07T14:44:37.275Z,14.13
2018-08-07T14:47:09.182Z,14.55
2018-08-07T14:49:40.523Z,14.00
2018-08-07T14:52:11.931Z,12.80
2018-08-07T14:54:43.218Z,13.32
2018-08-07T14:57:14.632Z,12.15
2018-08-07T14:59:45.831Z,12.13
2018-08-07T15:02:17.532Z,12.00
2018-08-07T15:04:49.481Z,12.13
2018-08-07T15:07:20.979Z,12.47
2018-08-07T15:09:52.232Z,12.43
2018-08-07T15:12:23.947Z,12.70
2018-08-07T15:14:55.009Z,12.50
2018-08-07T15:17:26.252Z,11.17
2018-08-07T15:19:57.463Z,12.00
2018-08-07T15:22:29.654Z,12.83
2018-08-07T15:25:00.442Z,11.65
2018-08-07T15:27:31.652Z,12.13
2018-08-07T15:30:02.745Z,11.57
2018-08-07T15:32:34.227Z,12.17
2018-08-07T15:35:05.965Z,11.93
2018-08-07T15:37:37.407Z,12.30
2018-08-07T15:40:09.451Z,11.60
2018-08-07T15:42:41.926Z,11.93
2018-08-07T15:45:14.111Z,11.70
2018-08-07T15:47:45.088Z,11.40
2018-08-07T15:50:17.346Z,12.43
2018-08-07T15:52:50.366Z,12.23
2018-08-07T15:55:23.744Z,11.70
2018-08-07T15:57:55.259Z,11.63
2018-08-07T16:00:30.492Z,11.55
2018-08-07T16:03:03.722Z,11.93
2018-08-07T16:05:35.079Z,12.13
2018-08-07T16:08:07.552Z,11.97
2018-08-07T16:10:38.755Z,12.00
2018-08-07T16:13:10.191Z,12.68
2018-08-07T16:15:41.456Z,13.10
2018-08-07T16:18:12.812Z,12.58
2018-08-07T16:20:43.954Z,12.78
2018-08-07T16:23:15.301Z,12.78
2018-08-07T16:25:46.572Z,12.53
2018-08-07T16:28:17.836Z,12.40
2018-08-07T16:30:49.121Z,12.40
2018-08-07T16:33:21.061Z,12.67
2018-08-07T16:35:52.395Z,13.40
2018-08-07T16:38:23.679Z,13.87
2018-08-07T16:40:55.128Z,13.57
2018-08-07T16:43:26.372Z,13.07
2018-08-07T16:45:57.832Z,13.30
2018-08-07T16:48:28.420Z,13.80
2018-08-07T16:50:59.812Z,14.80
2018-08-07T16:53:31.100Z,15.10
2018-08-07T16:56:02.147Z,14.80
2018-08-07T16:58:33.258Z,15.00
2018-08-07T17:01:04.463Z,15.13
2018-08-07T17:03:35.691Z,15.00
2018-08-07T17:06:07.051Z,14.13
2018-08-07T17:08:38.803Z,13.67
2018-08-07T17:11:10.051Z,14.20
2018-08-07T17:13:41.461Z,16.00
2018-08-07T17:16:12.688Z,14.83
2018-08-07T17:18:44.295Z,14.43
2018-08-07T17:21:15.526Z,14.67
2018-08-07T17:23:47.080Z,14.00
2018-08-07T17:26:18.636Z,14.57
2018-08-07T17:28:49.939Z,13.17
2018-08-07T17:31:21.314Z,13.27
2018-08-07T17:33:52.898Z,13.10
2018-08-07T17:36:23.990Z,13.60
2018-08-07T17:38:55.350Z,13.43
2018-08-07T17:41:26.845Z,13.30
2018-08-07T17:43:58.057Z,13.07
2018-08-07T17:46:29.232Z,14.00
2018-08-07T17:49:00.327Z,14.13
2018-08-07T17:51:31.946Z,14.20
2018-08-07T17:54:03.956Z,13.90
2018-08-07T17:56:35.037Z,14.77
2018-08-07T17:59:06.757Z,13.57
2018-08-07T18:01:38.089Z,13.17
2018-08-07T18:04:09.539Z,13.17
2018-08-07T18:06:42.020Z,12.80
2018-08-07T18:09:13.275Z,12.73
2018-08-07T18:11:45.271Z,12.47
2018-08-07T18:14:17.344Z,12.90
2018-08-07T18:16:47.964Z,12.37
2018-08-07T18:19:19.301Z,11.00
2018-08-07T18:21:50.612Z,12.03
2018-08-07T18:24:22.067Z,11.20
2018-08-07T18:26:53.294Z,10.77
2018-08-07T18:29:24.460Z,10.90
2018-08-07T18:31:55.869Z,11.20
2018-08-07T18:34:26.997Z,10.30
2018-08-07T18:36:58.207Z,10.37
2018-08-07T18:39:29.751Z,10.27
2018-08-07T18:42:00.978Z,9.93
2018-08-07T18:44:32.556Z,10.50
2018-08-07T18:47:03.603Z,10.87
2018-08-07T18:49:35.727Z,10.50
2018-08-07T18:52:07.175Z,11.50
2018-08-07T18:54:38.535Z,9.50
2018-08-07T18:57:09.784Z,9.10
2018-08-07T18:59:41.116Z,9.10
2018-08-07T19:02:12.531Z,9.53
2018-08-07T19:04:43.881Z,9.10
2018-08-07T19:07:15.329Z,8.80
2018-08-07T19:09:46.680Z,8.50
2018-08-07T19:12:18.516Z,8.30
2018-08-07T19:14:49.229Z,8.03
2018-08-07T19:17:20.608Z,8.03
2018-08-07T19:19:52.158Z,7.97
2018-08-07T19:22:23.278Z,7.90
2018-08-07T19:24:55.088Z,7.77
2018-08-07T19:27:28.073Z,7.83
2018-08-07T19:30:02.467Z,7.80
2018-08-07T19:32:38.752Z,7.77
2018-08-07T19:35:11.128Z,7.70
2018-08-07T19:37:42.684Z,7.63
2018-08-07T19:45:34.312Z,8.07
2018-08-07T19:48:05.604Z,8.10
2018-08-07T19:50:39.650Z,8.33
2018-08-07T19:53:10.934Z,8.20
2018-08-07T19:55:42.262Z,8.13
2018-08-07T19:59:15.977Z,7.90
2018-08-07T20:01:47.016Z,8.53
2018-08-07T20:04:18.533Z,7.63
2018-08-07T20:06:49.785Z,7.27
2018-08-07T20:09:21.197Z,7.50
2018-08-07T20:11:52.472Z,7.47
2018-08-07T20:14:23.632Z,7.07
2018-08-07T20:16:56.391Z,7.17
2018-08-07T20:19:27.918Z,7.10
2018-08-07T20:21:59.548Z,7.13
2018-08-07T20:24:30.868Z,7.67
2018-08-07T20:27:02.253Z,7.97
2018-08-07T20:29:33.503Z,7.77
2018-08-07T20:32:04.963Z,7.40
2018-08-07T20:34:36.334Z,7.53
2018-08-07T20:37:07.639Z,7.37
2018-08-07T20:39:38.850Z,7.20
2018-08-07T20:42:10.848Z,7.13
2018-08-07T20:44:42.200Z,7.33
2018-08-07T20:47:13.714Z,7.60
2018-08-07T20:49:44.987Z,7.53
2018-08-07T20:52:16.180Z,7.33
2018-08-07T20:54:47.715Z,7.57
2018-08-07T20:57:19.213Z,7.87
2018-08-07T20:59:50.614Z,7.87
2018-08-07T21:02:21.763Z,7.57
2018-08-07T21:04:53.055Z,7.60
2018-08-07T21:07:24.373Z,7.77
2018-08-07T21:09:55.625Z,7.50
2018-08-07T21:12:27.120Z,7.60
2018-08-07T21:14:58.895Z,7.90
2018-08-07T21:17:30.371Z,8.03
2018-08-07T21:20:01.506Z,8.20
2018-08-07T21:22:32.727Z,8.00
2018-08-07T21:25:04.909Z,7.97
2018-08-07T21:27:36.470Z,8.53
2018-08-07T21:30:11.939Z,7.90
2018-08-07T21:32:43.072Z,8.10
2018-08-07T21:35:14.336Z,7.90
2018-08-07T21:37:45.920Z,8.40
2018-08-07T21:40:20.540Z,7.87
2018-08-07T21:42:54.605Z,8.40
2018-08-07T21:45:26.147Z,7.93
2018-08-07T21:47:57.524Z,8.00
2018-08-07T21:50:28.756Z,8.00
2018-08-07T21:53:00.076Z,8.07
2018-08-07T21:55:31.508Z,8.20
2018-08-07T21:58:03.054Z,7.77
2018-08-07T22:00:48.332Z,8.30
2018-08-07T22:03:19.885Z,8.03
2018-08-07T22:05:51.880Z,7.73
2018-08-07T22:08:23.543Z,7.63
2018-08-07T22:10:54.936Z,7.40
2018-08-07T22:13:26.612Z,7.57
2018-08-07T22:15:57.819Z,7.23
2018-08-07T22:18:28.983Z,7.13
2018-08-07T22:21:00.360Z,6.67
2018-08-07T22:23:31.768Z,6.90
2018-08-07T22:26:03.185Z,6.83
2018-08-07T22:28:34.300Z,6.30
2018-08-07T22:31:05.748Z,6.63
2018-08-07T22:33:36.908Z,6.07
2018-08-07T22:36:08.992Z,6.33
2018-08-07T22:38:41.071Z,6.17
2018-08-07T22:41:12.203Z,6.00
2018-08-07T22:43:44.383Z,6.23
2018-08-07T22:46:15.579Z,6.10
2018-08-07T22:48:46.964Z,6.00
2018-08-07T22:51:18.140Z,5.60
2018-08-07T22:53:49.522Z,5.50
2018-08-07T22:56:21.019Z,6.20
2018-08-07T22:58:53.020Z,5.70
2018-08-07T23:01:24.532Z,5.83
2018-08-07T23:03:55.850Z,5.70
2018-08-07T23:06:27.200Z,5.87
2018-08-07T23:08:58.632Z,5.57
2018-08-07T23:11:29.821Z,5.90
2018-08-07T23:14:01.192Z,6.27
2018-08-07T23:16:32.667Z,5.90
2018-08-07T23:19:04.015Z,5.53
2018-08-07T23:21:35.233Z,5.80
2018-08-07T23:24:06.471Z,5.63
2018-08-07T23:26:37.608Z,5.90
2018-08-07T23:29:09.492Z,5.63
2018-08-07T23:31:40.711Z,5.80
2018-08-07T23:34:12.018Z,5.87
2018-08-07T23:36:43.208Z,6.10
2018-08-07T23:39:14.273Z,5.80
2018-08-07T23:41:45.967Z,5.77
2018-08-07T23:44:17.072Z,6.33
2018-08-07T23:46:48.271Z,6.03
2018-08-07T23:49:19.690Z,5.17
2018-08-07T23:51:51.104Z,6.10
2018-08-07T23:54:22.459Z,6.20
2018-08-07T23:56:53.878Z,5.60
2018-08-07T23:59:26.623Z,6.30
